Bangalore, India

4:09 PM IST on June 03, 2015 (GMT +0530)
PRAKRUTHI ROYALE, UAS Campus, Ganganagar | | Change Station
CLOSE
Current Station
Personal Weather Station
Location: Bengaluru, KARNATAKA
Elevation: 3025 ft
Nearby Weather Stations

Elev 3025 ft 13.03 °N, 77.59 °E | Updated 4 minutes ago

Partly Cloudy
Partly Cloudy
78.6 °F
Feels Like 81 °F
N
1.3
Wind Variable Wind from NNW
Gusts 3.1 mph

Today
High -- | Low -- °F
--% Chance of Precip.
Yesterday
High -- | Low -- °F
Precip. -- in
5:52 AM 6:43 PM
Full, 99% visible
Pressure 29.83 in
Visibility 5.0 miles
Clouds Scattered Clouds 1500 ft
Scattered Clouds 2000 ft
Few 2500 ft
Heat Index 81 °F
Dew Point 71 °F
Humidity 77%
Rainfall 0.04 in
Snow Depth Not available.
UV 0.0 out of 12
Pollen Not available.
Air Quality Not available.
Flu Activity Not available.
METAR VOBL 031030Z VRB04KT 8000 SCT015 SCT020 FEW025CB 34/20 Q1010 NOSIG RMK CB S

More Conditions Fewer Conditions

Pressure 29.83 in
Visibility 5.0 miles
Clouds Scattered Clouds 1500 ft
Scattered Clouds 2000 ft
Few 2500 ft
Heat Index 81 °F
Dew Point 71 °F
Humidity 77%
Rainfall 0.04 in
Snow Depth Not available.
UV 0.0 out of 12
Pollen Not available.
Air Quality Not available.
Flu Activity Not available.
METAR VOBL 031030Z VRB04KT 8000 SCT015 SCT020 FEW025CB 34/20 Q1010 NOSIG RMK CB S

More Conditions Fewer Conditions

10-Day Weather Forecast

×

Almanac

Astronomy

Jun. 03, 2015 Rise Set
Actual Time
Civil Twilight
Nautical Twilight
Astronomical Twilight
Moon
Length of Visible Light
Length of Day
Tomorrow will be .
, % of the Moon is Illuminated

Today's Extremes

Country Highs Country Lows

Community

WunderPhotos

Upload Photos

1,826,198 photos uploaded!

WunderBlogs® & News

Nearby

Air Quality

  Air Quality AQ Index Pollutant
Not available.

Snow Depth

Station Depth Elevation

Earthquake Activity

City Distance Mag. Time & Date
Minimum magnitude displayed is 2.5.

Coastal Water Temperatures

Place Temperature

Stations

Nearby Weather Stations

Station Location Temp. Windchill Dew Point Humidity Wind Precip. Elev Updated Type